createdAt,value
2023-04-22T00:01:40.926Z,91.82
2023-04-22T00:04:28.106Z,92.05
2023-04-22T00:07:15.533Z,94.45
2023-04-22T00:10:01.059Z,100.32
2023-04-22T00:12:46.604Z,98.95
2023-04-22T00:15:42.210Z,99.68
2023-04-22T00:18:27.590Z,103.72
2023-04-22T00:21:15.873Z,104.05
2023-04-22T00:24:01.554Z,104.68
2023-04-22T00:26:46.760Z,105.32
2023-04-22T00:29:32.370Z,107.20
2023-04-22T00:32:17.871Z,106.60
2023-04-22T00:35:07.752Z,107.93
2023-04-22T00:37:53.580Z,102.90
2023-04-22T00:40:39.045Z,101.13
2023-04-22T00:43:24.352Z,104.82
2023-04-22T00:46:10.149Z,98.63
2023-04-22T00:48:56.246Z,99.45
2023-04-22T00:51:42.747Z,101.05
2023-04-22T00:54:28.936Z,98.60
2023-04-22T00:57:14.700Z,97.43
2023-04-22T01:00:00.395Z,104.07
2023-04-22T01:02:46.207Z,93.68
2023-04-22T01:05:32.601Z,100.68
2023-04-22T01:08:17.970Z,106.53
2023-04-22T01:11:03.239Z,95.10
2023-04-22T01:13:48.765Z,107.90
2023-04-22T01:16:39.188Z,111.22
2023-04-22T01:19:24.797Z,104.97
2023-04-22T01:22:16.947Z,109.47
2023-04-22T01:25:03.589Z,104.07
2023-04-22T01:27:49.479Z,105.50
2023-04-22T01:30:35.390Z,116.28
2023-04-22T01:33:20.641Z,117.30
2023-04-22T01:36:06.137Z,118.43
2023-04-22T01:38:52.818Z,105.10
2023-04-22T01:41:38.810Z,109.78
2023-04-22T01:44:26.607Z,116.22
2023-04-22T01:47:13.359Z,115.00
2023-04-22T01:49:58.856Z,117.15
2023-04-22T01:52:44.216Z,115.43
2023-04-22T01:55:31.092Z,115.15
2023-04-22T01:58:16.890Z,111.90
2023-04-22T02:01:02.635Z,118.07
2023-04-22T02:03:48.499Z,111.30
2023-04-22T02:06:33.963Z,111.53
2023-04-22T02:09:22.624Z,116.95
2023-04-22T02:12:08.396Z,110.78
2023-04-22T02:14:53.876Z,109.45
2023-04-22T02:17:42.665Z,106.50
2023-04-22T02:20:30.848Z,103.00
2023-04-22T02:23:16.527Z,100.20
2023-04-22T02:26:03.822Z,96.68
2023-04-22T02:28:49.657Z,99.97
2023-04-22T02:31:35.193Z,96.57
2023-04-22T02:34:21.063Z,95.00
2023-04-22T02:37:06.425Z,106.15
2023-04-22T02:39:55.597Z,92.70
2023-04-22T02:42:41.792Z,85.60
2023-04-22T02:45:27.130Z,99.97
2023-04-22T02:48:14.316Z,98.75
2023-04-22T02:51:00.987Z,105.72
2023-04-22T02:53:47.343Z,102.97
2023-04-22T02:56:32.812Z,97.32
2023-04-22T02:59:18.370Z,104.70
2023-04-22T03:02:06.715Z,101.07
2023-04-22T03:05:03.621Z,111.57
2023-04-22T03:07:52.069Z,109.07
2023-04-22T03:10:37.563Z,105.78
2023-04-22T03:13:22.928Z,102.80
2023-04-22T03:16:10.091Z,110.65
2023-04-22T03:18:56.552Z,108.35
2023-04-22T03:21:41.807Z,109.05
2023-04-22T03:24:27.214Z,113.47
2023-04-22T03:27:14.213Z,112.60
2023-04-22T03:30:00.756Z,114.10
2023-04-22T03:32:52.876Z,112.22
2023-04-22T03:35:41.518Z,113.65
2023-04-22T03:38:27.574Z,115.07
2023-04-22T03:41:13.592Z,120.95
2023-04-22T03:44:03.696Z,119.80
2023-04-22T03:46:53.844Z,118.30
2023-04-22T03:49:43.299Z,114.63
2023-04-22T03:52:28.565Z,117.00
2023-04-22T03:55:17.657Z,117.35
2023-04-22T03:58:04.261Z,115.97
2023-04-22T04:00:52.617Z,113.20
2023-04-22T04:03:38.730Z,115.70
2023-04-22T04:06:26.680Z,114.85
2023-04-22T04:09:12.265Z,114.13
2023-04-22T04:11:58.156Z,116.15
2023-04-22T04:14:46.087Z,116.82
2023-04-22T04:17:35.112Z,114.60
2023-04-22T04:20:22.021Z,113.63
2023-04-22T04:23:09.015Z,115.50
2023-04-22T04:25:55.721Z,117.60
2023-04-22T04:28:42.625Z,113.40
2023-04-22T04:31:29.026Z,109.10
2023-04-22T04:34:17.680Z,115.32
2023-04-22T04:37:03.481Z,114.03
2023-04-22T04:42:55.643Z,111.10
2023-04-22T04:45:48.460Z,118.60
2023-04-22T04:48:36.484Z,115.25
2023-04-22T04:51:43.603Z,114.45
2023-04-22T04:54:31.937Z,122.93
2023-04-22T04:57:21.692Z,119.05
2023-04-22T05:00:08.303Z,121.60
2023-04-22T05:02:54.586Z,118.45
2023-04-22T05:05:40.382Z,123.35
2023-04-22T05:08:25.548Z,126.05
2023-04-22T05:11:22.421Z,121.15
2023-04-22T05:14:10.365Z,121.87
2023-04-22T05:16:59.520Z,117.80
2023-04-22T05:19:45.102Z,107.78
2023-04-22T05:22:34.861Z,115.65
2023-04-22T05:25:23.051Z,111.22
2023-04-22T05:31:07.599Z,109.18
2023-04-22T05:33:53.008Z,111.07
2023-04-22T05:36:40.027Z,107.40
2023-04-22T05:39:26.672Z,105.95
2023-04-22T05:42:19.530Z,103.70
2023-04-22T05:45:05.645Z,105.20
2023-04-22T05:47:51.394Z,103.90
2023-04-22T05:50:36.985Z,100.82
2023-04-22T05:53:26.881Z,102.50
2023-04-22T05:56:13.643Z,97.53
2023-04-22T05:58:59.137Z,95.70
2023-04-22T06:01:45.392Z,95.32
2023-04-22T06:04:37.951Z,92.78
2023-04-22T06:07:24.240Z,95.85
2023-04-22T06:10:10.280Z,89.18
2023-04-22T06:12:56.140Z,89.10
2023-04-22T06:15:44.298Z,87.38
2023-04-22T06:18:30.031Z,78.30
2023-04-22T06:21:15.731Z,78.07
2023-04-22T06:24:01.450Z,75.43
2023-04-22T06:26:47.716Z,70.38
2023-04-22T06:29:33.645Z,70.18
2023-04-22T06:32:18.923Z,64.82
2023-04-22T06:35:04.716Z,59.67
2023-04-22T06:37:55.055Z,60.25
2023-04-22T06:40:47.146Z,53.78
2023-04-22T06:43:41.991Z,50.88
2023-04-22T06:46:27.240Z,48.10
2023-04-22T06:49:19.155Z,44.15
2023-04-22T06:52:24.318Z,43.10
2023-04-22T06:55:13.338Z,38.78
2023-04-22T06:57:59.113Z,37.17
2023-04-22T07:00:45.110Z,35.08
2023-04-22T07:03:33.325Z,35.92
2023-04-22T07:06:24.392Z,34.47
2023-04-22T07:09:11.210Z,30.98
2023-04-22T07:11:59.314Z,31.20
2023-04-22T07:14:49.448Z,31.60
2023-04-22T07:17:35.032Z,29.25
2023-04-22T07:20:20.952Z,30.05
2023-04-22T07:23:07.332Z,27.30
2023-04-22T07:25:53.335Z,28.98
2023-04-22T07:28:39.135Z,25.70
2023-04-22T07:31:24.554Z,27.70
2023-04-22T07:34:10.776Z,26.58
2023-04-22T07:36:58.131Z,26.52
2023-04-22T07:39:43.496Z,24.58
2023-04-22T07:42:29.136Z,24.88
2023-04-22T07:45:14.656Z,25.95
2023-04-22T07:47:59.865Z,27.85
2023-04-22T07:50:45.569Z,26.38
2023-04-22T07:53:31.068Z,24.27
2023-04-22T07:56:16.592Z,25.65
2023-04-22T07:59:01.965Z,27.10
2023-04-22T08:01:47.480Z,27.25
2023-04-22T08:04:33.365Z,23.05
2023-04-22T08:10:14.399Z,22.15
2023-04-22T08:13:00.048Z,18.70
2023-04-22T08:15:45.762Z,18.45
2023-04-22T08:18:31.352Z,19.15
2023-04-22T08:21:17.133Z,17.50
2023-04-22T08:24:08.926Z,17.73
2023-04-22T08:26:54.597Z,19.58
2023-04-22T08:29:40.005Z,17.50
2023-04-22T08:32:26.800Z,15.98
2023-04-22T08:35:13.703Z,15.52
2023-04-22T08:37:59.266Z,16.92
2023-04-22T08:40:44.580Z,13.25
2023-04-22T08:43:30.786Z,13.60
2023-04-22T08:46:20.076Z,12.93
2023-04-22T08:49:06.112Z,12.18
2023-04-22T08:51:52.932Z,14.95
2023-04-22T08:54:38.621Z,14.35
2023-04-22T08:57:24.737Z,14.43
2023-04-22T09:00:11.414Z,14.43
2023-04-22T09:03:00.822Z,12.70
2023-04-22T09:05:50.087Z,12.45
2023-04-22T09:08:37.253Z,11.32
2023-04-22T09:11:22.872Z,10.95
2023-04-22T09:14:10.924Z,10.60
2023-04-22T09:16:58.413Z,10.25
2023-04-22T09:19:43.937Z,12.30
2023-04-22T09:22:36.833Z,12.23
2023-04-22T09:25:25.266Z,11.88
2023-04-22T09:28:18.406Z,12.15
2023-04-22T09:31:03.944Z,12.77
2023-04-22T09:33:54.959Z,12.50
2023-04-22T09:36:40.726Z,12.13
2023-04-22T09:39:26.112Z,12.10
2023-04-22T09:42:11.742Z,11.48
2023-04-22T09:45:01.284Z,11.68
2023-04-22T09:47:47.226Z,10.70
2023-04-22T09:50:32.748Z,10.38
2023-04-22T09:53:20.560Z,10.30
2023-04-22T09:56:06.209Z,11.00
2023-04-22T09:58:53.287Z,10.88
2023-04-22T10:01:41.432Z,10.40
2023-04-22T10:04:31.368Z,9.38
2023-04-22T10:07:17.646Z,8.82
2023-04-22T10:10:03.935Z,8.88
2023-04-22T10:12:49.745Z,9.43
2023-04-22T10:15:39.354Z,10.05
2023-04-22T10:18:29.241Z,10.30
2023-04-22T10:21:14.800Z,9.82
2023-04-22T10:24:01.107Z,10.80
2023-04-22T10:26:57.184Z,10.23
2023-04-22T10:29:43.570Z,10.60
2023-04-22T10:32:30.145Z,10.50
2023-04-22T10:35:26.881Z,9.18
2023-04-22T10:38:12.370Z,10.27
2023-04-22T10:41:01.576Z,10.43
2023-04-22T10:43:49.350Z,11.18
2023-04-22T10:46:37.162Z,11.50
2023-04-22T10:49:27.712Z,10.68
2023-04-22T10:52:29.184Z,11.35
2023-04-22T10:55:14.524Z,12.02
2023-04-22T10:58:00.053Z,12.13
2023-04-22T11:00:53.324Z,12.25
2023-04-22T11:03:40.110Z,12.93
2023-04-22T11:06:27.941Z,12.68
2023-04-22T11:09:13.375Z,12.30
2023-04-22T11:12:39.433Z,12.50
2023-04-22T11:15:27.312Z,13.27
2023-04-22T11:18:23.863Z,12.88
2023-04-22T11:21:10.056Z,12.32
2023-04-22T11:23:56.996Z,14.13
2023-04-22T11:26:42.656Z,12.35
2023-04-22T11:29:28.151Z,13.73
2023-04-22T11:32:13.935Z,13.60
2023-04-22T11:35:12.774Z,12.77
2023-04-22T11:38:06.302Z,14.98
2023-04-22T11:40:51.857Z,14.93
2023-04-22T11:43:47.433Z,15.77
2023-04-22T11:46:38.815Z,16.23
2023-04-22T11:49:26.722Z,17.17
2023-04-22T11:52:12.965Z,15.77
2023-04-22T11:55:00.232Z,15.77
2023-04-22T11:57:50.855Z,15.95
2023-04-22T12:00:37.545Z,15.55
2023-04-22T12:03:30.618Z,17.00
2023-04-22T12:06:16.630Z,17.60
2023-04-22T12:09:02.666Z,19.27
2023-04-22T12:11:48.166Z,20.92
2023-04-22T12:14:34.797Z,21.90
2023-04-22T12:17:25.043Z,23.95
2023-04-22T12:20:13.797Z,22.98
2023-04-22T12:22:58.907Z,21.98
2023-04-22T12:25:44.487Z,22.83
2023-04-22T12:28:30.000Z,23.75
2023-04-22T12:31:16.422Z,24.85
2023-04-22T12:34:02.297Z,24.63
2023-04-22T12:36:48.297Z,26.55
2023-04-22T12:39:34.086Z,28.05
2023-04-22T12:42:19.491Z,28.05
2023-04-22T12:45:05.201Z,26.00
2023-04-22T12:47:56.880Z,26.88
2023-04-22T12:50:42.531Z,26.33
2023-04-22T12:53:28.589Z,25.92
2023-04-22T12:56:13.853Z,28.10
2023-04-22T12:59:03.153Z,27.02
2023-04-22T13:01:48.431Z,26.95
2023-04-22T13:04:34.139Z,27.50
2023-04-22T13:07:19.922Z,28.33
2023-04-22T13:10:06.481Z,28.60
2023-04-22T13:12:51.845Z,29.50
2023-04-22T13:15:37.065Z,28.95
2023-04-22T13:18:23.728Z,28.88
2023-04-22T13:21:09.260Z,28.33
2023-04-22T13:23:54.390Z,28.80
2023-04-22T13:26:39.996Z,32.50
2023-04-22T13:29:26.082Z,31.85
2023-04-22T13:32:12.434Z,31.70
2023-04-22T13:34:57.983Z,33.45
2023-04-22T13:37:46.604Z,32.60
2023-04-22T13:40:32.010Z,32.15
2023-04-22T13:43:17.209Z,30.40
2023-04-22T13:46:02.982Z,29.42
2023-04-22T13:48:48.453Z,31.30
2023-04-22T13:51:34.788Z,30.55
2023-04-22T13:54:23.360Z,32.03
2023-04-22T13:57:08.760Z,33.80
2023-04-22T13:59:54.089Z,32.47
2023-04-22T14:02:39.795Z,30.73
2023-04-22T14:05:25.973Z,31.73
2023-04-22T14:08:11.942Z,32.97
2023-04-22T14:10:59.469Z,31.60
2023-04-22T14:13:46.704Z,32.00
2023-04-22T14:16:32.338Z,30.40
2023-04-22T14:19:18.182Z,32.60
2023-04-22T14:22:03.656Z,36.33
2023-04-22T14:24:49.059Z,36.20
2023-04-22T14:27:34.315Z,35.40
2023-04-22T14:30:23.126Z,38.20
2023-04-22T14:33:09.745Z,39.95
2023-04-22T14:35:58.760Z,40.30
2023-04-22T14:38:44.934Z,38.53
2023-04-22T14:41:30.369Z,39.45
2023-04-22T14:44:16.154Z,38.22
2023-04-22T14:47:01.628Z,41.15
2023-04-22T14:49:47.341Z,42.20
2023-04-22T14:52:33.028Z,40.55
2023-04-22T14:55:23.239Z,40.85
2023-04-22T14:58:10.256Z,42.75
2023-04-22T15:00:55.852Z,45.53
2023-04-22T15:03:41.626Z,48.72
2023-04-22T15:06:28.334Z,46.92
2023-04-22T15:09:13.760Z,44.47
2023-04-22T15:11:59.639Z,41.90
2023-04-22T15:14:46.093Z,40.55
2023-04-22T15:17:34.875Z,41.13
2023-04-22T15:20:20.478Z,44.25
2023-04-22T15:23:06.090Z,41.28
2023-04-22T15:25:51.749Z,44.45
2023-04-22T15:28:36.907Z,42.95
2023-04-22T15:31:22.883Z,44.08
2023-04-22T15:34:08.350Z,42.92
2023-04-22T15:36:53.936Z,43.30
2023-04-22T15:39:43.141Z,45.15
2023-04-22T15:42:28.573Z,46.58
2023-04-22T15:45:16.673Z,45.17
2023-04-22T15:48:02.559Z,50.20
2023-04-22T15:50:48.180Z,49.45
2023-04-22T15:53:33.649Z,48.15
2023-04-22T15:56:19.384Z,47.97
2023-04-22T15:59:07.284Z,45.72
2023-04-22T16:01:54.883Z,45.50
2023-04-22T16:04:41.875Z,45.30
2023-04-22T16:07:28.759Z,41.22
2023-04-22T16:10:14.551Z,42.17
2023-04-22T16:13:00.416Z,38.17
2023-04-22T16:15:46.165Z,38.45
2023-04-22T16:18:32.567Z,39.55
2023-04-22T16:21:18.310Z,39.13
2023-04-22T16:24:04.731Z,37.38
2023-04-22T16:26:50.887Z,37.70
2023-04-22T16:29:36.157Z,37.72
2023-04-22T16:32:27.735Z,35.78
2023-04-22T16:35:12.944Z,36.67
2023-04-22T16:37:58.787Z,36.03
2023-04-22T16:40:44.374Z,35.35
2023-04-22T16:43:29.823Z,34.28
2023-04-22T16:46:15.176Z,31.08
2023-04-22T16:49:00.990Z,32.97
2023-04-22T16:51:46.602Z,31.25
2023-04-22T16:54:34.477Z,33.42
2023-04-22T16:57:20.134Z,33.40
2023-04-22T17:00:06.009Z,33.83
2023-04-22T17:02:51.594Z,33.08
2023-04-22T17:05:37.409Z,35.42
2023-04-22T17:08:22.927Z,33.65
2023-04-22T17:11:08.200Z,32.70
2023-04-22T17:13:53.846Z,33.45
2023-04-22T17:16:39.019Z,31.27
2023-04-22T17:19:31.057Z,30.83
2023-04-22T17:22:16.551Z,31.60
2023-04-22T17:25:03.044Z,31.60
2023-04-22T17:27:49.178Z,34.00
2023-04-22T17:30:34.415Z,34.22
2023-04-22T17:33:20.009Z,32.75
2023-04-22T17:36:14.742Z,32.03
2023-04-22T17:39:00.172Z,34.10
2023-04-22T17:41:47.520Z,32.42
2023-04-22T17:44:33.441Z,33.38
2023-04-22T17:47:19.228Z,32.58
2023-04-22T17:50:04.876Z,34.22
2023-04-22T17:52:50.734Z,33.15
2023-04-22T17:55:36.356Z,32.55
2023-04-22T17:58:21.740Z,32.55
2023-04-22T18:01:08.178Z,32.20
2023-04-22T18:03:53.889Z,34.50
2023-04-22T18:06:39.449Z,34.15
2023-04-22T18:09:24.895Z,36.08
2023-04-22T18:12:10.730Z,35.05
2023-04-22T18:14:56.122Z,36.58
2023-04-22T18:17:42.005Z,35.38
2023-04-22T18:20:30.089Z,36.88
2023-04-22T18:23:15.631Z,36.60
2023-04-22T18:26:01.076Z,34.90
2023-04-22T18:28:49.186Z,36.22
2023-04-22T18:31:35.405Z,36.35
2023-04-22T18:34:20.663Z,37.05
2023-04-22T18:37:09.200Z,38.28
2023-04-22T18:39:54.739Z,37.40
2023-04-22T18:42:40.402Z,38.75
2023-04-22T18:45:25.889Z,38.70
2023-04-22T18:48:11.619Z,39.50
2023-04-22T18:50:58.205Z,39.63
2023-04-22T18:53:43.767Z,38.08
2023-04-22T18:56:33.040Z,41.13
2023-04-22T18:59:18.286Z,39.80
2023-04-22T19:02:04.185Z,39.58
2023-04-22T19:04:49.582Z,43.83
2023-04-22T19:07:34.789Z,42.75
2023-04-22T19:10:21.095Z,40.35
2023-04-22T19:13:13.460Z,41.60
2023-04-22T19:16:08.275Z,42.88
2023-04-22T19:18:53.484Z,43.55
2023-04-22T19:21:39.558Z,46.05
2023-04-22T19:24:24.932Z,47.85
2023-04-22T19:27:13.258Z,48.78
2023-04-22T19:29:58.528Z,51.10
2023-04-22T19:32:44.260Z,50.97
2023-04-22T19:35:29.629Z,55.17
2023-04-22T19:38:19.410Z,60.88
2023-04-22T19:41:04.705Z,56.85
2023-04-22T19:43:49.820Z,58.72
2023-04-22T19:46:36.766Z,58.47
2023-04-22T19:49:23.034Z,56.92
2023-04-22T19:52:15.604Z,60.10
2023-04-22T19:55:08.841Z,63.45
2023-04-22T19:57:54.725Z,63.10
2023-04-22T20:00:52.749Z,66.15
2023-04-22T20:03:38.926Z,67.63
2023-04-22T20:06:25.110Z,57.85
2023-04-22T20:09:11.208Z,56.65
2023-04-22T20:11:56.754Z,54.45
2023-04-22T20:14:43.145Z,52.95
2023-04-22T20:17:29.045Z,52.03
2023-04-22T20:20:17.586Z,51.88
2023-04-22T20:23:10.182Z,55.80
2023-04-22T20:25:56.319Z,55.53
2023-04-22T20:28:47.064Z,55.22
2023-04-22T20:31:34.414Z,55.80
2023-04-22T20:34:20.251Z,58.33
2023-04-22T20:37:10.520Z,56.08
2023-04-22T20:39:57.409Z,64.50
2023-04-22T20:42:43.244Z,57.47
2023-04-22T20:45:28.713Z,57.45
2023-04-22T20:48:17.487Z,57.13
2023-04-22T20:51:02.987Z,58.05
2023-04-22T20:53:48.423Z,56.05
2023-04-22T20:56:33.867Z,57.13
2023-04-22T20:59:29.448Z,56.20
2023-04-22T21:02:16.523Z,57.20
2023-04-22T21:05:04.067Z,58.00
2023-04-22T21:07:52.490Z,57.85
2023-04-22T21:10:38.483Z,58.10
2023-04-22T21:13:28.933Z,58.33
2023-04-22T21:16:18.397Z,61.10
2023-04-22T21:19:07.078Z,58.83
2023-04-22T21:21:54.663Z,62.20
2023-04-22T21:24:40.895Z,61.60
2023-04-22T21:27:29.021Z,62.45
2023-04-22T21:30:14.731Z,63.30
2023-04-22T21:33:00.321Z,67.55
2023-04-22T21:35:46.532Z,68.20
2023-04-22T21:38:31.847Z,66.43
2023-04-22T21:41:17.612Z,67.15
2023-04-22T21:44:02.936Z,67.45
2023-04-22T21:46:48.719Z,68.32
2023-04-22T21:49:34.115Z,67.50
2023-04-22T21:52:19.525Z,68.18
2023-04-22T21:55:06.317Z,63.33
2023-04-22T21:57:51.841Z,67.95
2023-04-22T22:00:38.073Z,67.55
2023-04-22T22:03:24.011Z,70.00
2023-04-22T22:06:10.073Z,70.57
2023-04-22T22:08:55.474Z,70.43
2023-04-22T22:11:40.735Z,69.25
2023-04-22T22:14:26.435Z,72.95
2023-04-22T22:17:11.793Z,69.45
2023-04-22T22:19:57.550Z,71.50
2023-04-22T22:22:49.828Z,70.53
2023-04-22T22:25:38.013Z,72.93
2023-04-22T22:28:23.635Z,72.53
2023-04-22T22:31:09.080Z,73.20
2023-04-22T22:33:54.822Z,73.53
2023-04-22T22:36:41.224Z,72.57
2023-04-22T22:39:26.445Z,72.53
2023-04-22T22:42:11.714Z,72.85
2023-04-22T22:44:57.682Z,73.22
2023-04-22T22:47:42.937Z,74.43
2023-04-22T22:50:28.414Z,74.05
2023-04-22T22:53:14.269Z,74.85
2023-04-22T22:55:59.401Z,76.53
2023-04-22T22:58:46.007Z,79.07
2023-04-22T23:01:31.347Z,77.60
2023-04-22T23:04:17.070Z,80.25
2023-04-22T23:07:03.665Z,79.88
2023-04-22T23:09:49.394Z,84.07
2023-04-22T23:12:35.764Z,85.45
2023-04-22T23:15:23.140Z,86.53
2023-04-22T23:18:09.561Z,88.28
2023-04-22T23:20:55.569Z,90.05
2023-04-22T23:23:46.604Z,92.05
2023-04-22T23:26:32.093Z,93.90
2023-04-22T23:29:19.005Z,95.50
2023-04-22T23:32:07.142Z,95.20
2023-04-22T23:34:53.980Z,93.63
2023-04-22T23:37:47.102Z,96.88
2023-04-22T23:40:32.551Z,95.53
2023-04-22T23:43:18.231Z,93.85
2023-04-22T23:46:03.548Z,99.50
2023-04-22T23:48:49.074Z,98.25
2023-04-22T23:51:35.211Z,102.38
2023-04-22T23:54:21.164Z,99.90
2023-04-22T23:57:08.381Z,102.65
2023-04-22T23:59:54.110Z,106.53
